Time;durP1;ratioP1;P1;durP2;ratioP2;P2;SDS_P1;SDS_P2;PMS_P1;PMS_P2;Temp;Humidity;BMP_temperature;BMP_pressure;BME280_temperature;BME280_humidity;BME280_pressure;Samples;Min_cycle;Max_cycle;Signal;HPM_P1;HPM_P2
2022/01/06 00:01:04;;;;;;;9.77;2.33;;;4.10;99.90;;;;;;5077157;28;20048;-62
2022/01/06 00:03:31;;;;;;;19.67;2.83;;;;;;;;;;5076914;28;20040;-63
2022/01/06 00:05:58;;;;;;;10.48;1.77;;;;;;;;;;5058708;28;20044;-62
2022/01/06 00:08:24;;;;;;;11.18;2.58;;;;;;;;;;5058234;28;20154;-61
2022/01/06 00:10:51;;;;;;;11.50;2.22;;;3.90;99.90;;;;;;5076327;28;20047;-63
2022/01/06 00:13:24;;;;;;;18.95;4.80;;;3.90;99.90;;;;;;5058797;28;20047;-63
2022/01/06 00:18:28;;;;;;;13.55;3.22;;;3.90;99.90;;;;;;5057934;28;20044;-62
2022/01/06 00:23:39;;;;;;;20.00;3.00;;;;;;;;;;5058223;28;20131;-62
2022/01/06 00:26:05;;;;;;;20.42;3.55;;;;;;;;;;5058516;28;20094;-62
2022/01/06 00:28:31;;;;;;;15.70;3.60;;;;;;;;;;5058294;28;20043;-63
2022/01/06 00:30:58;;;;;;;15.60;3.95;;;;;;;;;;5057968;28;20489;-63
2022/01/06 00:33:24;;;;;;;24.35;4.35;;;;;;;;;;5058402;28;20070;-63
2022/01/06 00:35:51;;;;;;;21.75;5.07;;;3.80;99.90;;;;;;5075724;28;20088;-62
2022/01/06 00:38:17;;;;;;;31.85;4.43;;;;;;;;;;5057915;28;20094;-62
2022/01/06 00:40:43;;;;;;;23.25;4.88;;;3.70;99.90;;;;;;5058249;28;20570;-62
2022/01/06 00:43:09;;;;;;;28.20;4.80;;;3.80;99.90;;;;;;5041360;28;20079;-62
2022/01/06 00:45:38;;;;;;;21.23;4.38;;;3.90;99.90;;;;;;5074814;28;20033;-62
2022/01/06 00:48:07;;;;;;;20.75;3.72;;;3.70;99.90;;;;;;5076041;28;20032;-62
2022/01/06 00:50:33;;;;;;;18.10;3.78;;;3.70;99.90;;;;;;5058186;28;20029;-62
2022/01/06 00:53:00;;;;;;;18.20;4.35;;;3.80;99.90;;;;;;5058280;28;20047;-63
2022/01/06 00:55:25;;;;;;;16.25;3.20;;;3.60;99.90;;;;;;5058094;28;20478;-63
2022/01/06 00:57:55;;;;;;;22.52;3.20;;;;;;;;;;5057853;28;20032;-62
2022/01/06 01:00:23;;;;;;;15.55;3.53;;;3.60;99.90;;;;;;5040953;28;20127;-62
2022/01/06 01:02:49;;;;;;;19.45;4.20;;;3.50;99.90;;;;;;5075514;28;20413;-62
2022/01/06 01:05:14;;;;;;;15.55;3.08;;;3.50;99.90;;;;;;5057753;28;20052;-62
2022/01/06 01:07:40;;;;;;;22.17;3.17;;;3.50;99.90;;;;;;5074965;28;20040;-62
2022/01/06 01:10:06;;;;;;;19.52;3.47;;;3.20;99.90;;;;;;5057408;28;20041;-62
2022/01/06 01:12:32;;;;;;;14.23;3.90;;;;;;;;;;5075028;28;20492;-62
2022/01/06 01:15:07;;;;;;;21.20;3.67;;;3.40;99.90;;;;;;5057179;28;20064;-62
2022/01/06 01:17:33;;;;;;;19.40;3.65;;;3.50;99.90;;;;;;5040744;28;20037;-62
2022/01/06 01:20:00;;;;;;;15.75;3.72;;;;;;;;;;5075239;28;20037;-62
2022/01/06 01:22:26;;;;;;;21.48;4.53;;;3.30;99.90;;;;;;5075037;28;20043;-62
2022/01/06 01:24:51;;;;;;;14.32;3.20;;;3.30;99.90;;;;;;5057091;28;20123;-62
2022/01/06 01:27:21;;;;;;;21.55;4.30;;;3.30;99.90;;;;;;5057629;28;20036;-62
2022/01/06 01:29:58;;;;;;;15.35;3.13;;;3.30;99.90;;;;;;5057757;28;20387;-62
2022/01/06 01:32:31;;;;;;;19.30;3.65;;;3.20;99.90;;;;;;5056976;28;20079;-62
2022/01/06 01:35:00;;;;;;;20.35;3.50;;;3.20;99.90;;;;;;5056029;28;20418;-62
2022/01/06 01:37:30;;;;;;;19.70;4.78;;;3.10;99.90;;;;;;5074500;28;20049;-62
2022/01/06 01:39:56;;;;;;;17.67;3.30;;;;;;;;;;5074268;28;20490;-62
2022/01/06 01:42:22;;;;;;;24.92;3.97;;;3.20;99.90;;;;;;5057188;28;20127;-62
2022/01/06 01:44:50;;;;;;;23.85;4.10;;;3.20;99.90;;;;;;5057491;28;20521;-62
2022/01/06 01:49:55;;;;;;;20.88;4.38;;;;;;;;;;5180962;22;20061;-62
2022/01/06 01:52:21;;;;;;;18.33;3.92;;;;;;;;;;5037361;28;20049;-62
2022/01/06 01:54:47;;;;;;;23.70;5.25;;;3.00;99.90;;;;;;5020736;28;20491;-62
2022/01/06 01:57:13;;;;;;;23.00;3.80;;;3.30;99.90;;;;;;5024093;28;20036;-62
2022/01/06 01:59:39;;;;;;;25.08;5.43;;;;;;;;;;5039894;28;20040;-62
2022/01/06 02:02:05;;;;;;;21.33;4.82;;;3.20;99.90;;;;;;5056681;28;20494;-62
2022/01/06 02:04:30;;;;;;;20.63;3.30;;;3.20;99.90;;;;;;5074532;28;20042;-62
2022/01/06 02:06:56;;;;;;;21.33;4.03;;;;;;;;;;5039976;28;20131;-62
2022/01/06 02:09:22;;;;;;;16.50;3.75;;;;;;;;;;5056400;28;20560;-62
2022/01/06 02:11:48;;;;;;;21.23;4.65;;;;;;;;;;5074703;28;20037;-62
2022/01/06 02:14:14;;;;;;;23.63;4.22;;;;;;;;;;5056691;28;20059;-62
2022/01/06 02:16:40;;;;;;;19.38;3.67;;;3.20;99.90;;;;;;5056406;28;20445;-62
2022/01/06 02:19:06;;;;;;;21.73;4.35;;;3.20;99.90;;;;;;5056810;28;20032;-62
2022/01/06 02:21:32;;;;;;;20.42;3.60;;;;;;;;;;5040192;28;20075;-62
2022/01/06 02:23:57;;;;;;;18.77;3.65;;;3.10;99.90;;;;;;5056554;28;20048;-62
2022/01/06 02:26:23;;;;;;;15.25;2.83;;;3.10;99.90;;;;;;5056430;28;20093;-62
2022/01/06 02:28:49;;;;;;;19.17;3.28;;;;;;;;;;5056314;28;20047;-62
2022/01/06 02:31:14;;;;;;;19.77;3.33;;;3.20;99.90;;;;;;5074190;28;20044;-62
2022/01/06 02:33:41;;;;;;;16.30;3.42;;;;;;;;;;5074011;28;20072;-62
2022/01/06 02:36:07;;;;;;;12.32;2.63;;;;;;;;;;5074533;28;20090;-62
2022/01/06 02:38:34;;;;;;;10.68;2.63;;;3.00;99.90;;;;;;5056371;28;20052;-62
2022/01/06 02:41:00;;;;;;;13.07;2.80;;;2.90;99.90;;;;;;5056221;28;20555;-63
2022/01/06 02:43:26;;;;;;;14.75;3.25;;;2.80;99.90;;;;;;5056264;28;20041;-63
2022/01/06 02:45:51;;;;;;;15.57;2.60;;;2.90;99.90;;;;;;5074663;28;20040;-62
2022/01/06 02:48:17;;;;;;;13.18;2.60;;;2.80;99.90;;;;;;5073769;28;20413;-63
2022/01/06 02:50:45;;;;;;;17.30;3.15;;;2.90;99.90;;;;;;5055724;28;20478;-63
2022/01/06 02:53:12;;;;;;;20.52;3.25;;;2.80;99.90;;;;;;5056125;28;20098;-60
2022/01/06 02:55:41;;;;;;;17.20;2.25;;;2.70;99.90;;;;;;5056068;28;20083;-60
2022/01/06 02:58:07;;;;;;;14.48;2.58;;;2.80;99.90;;;;;;5039408;28;20040;-60
2022/01/06 03:00:35;;;;;;;13.80;3.28;;;2.60;99.90;;;;;;5055688;28;20052;-61
2022/01/06 03:03:01;;;;;;;9.52;2.40;;;;;;;;;;5056031;28;20052;-60
2022/01/06 03:05:27;;;;;;;10.55;2.88;;;2.60;99.90;;;;;;5056045;28;20048;-60
2022/01/06 03:07:52;;;;;;;16.02;2.75;;;2.50;99.90;;;;;;5073808;28;20036;-60
2022/01/06 03:10:18;;;;;;;11.77;2.13;;;;;;;;;;5077358;28;20047;-59
2022/01/06 03:12:45;;;;;;;17.20;2.92;;;;;;;;;;5077640;28;20127;-59
2022/01/06 03:15:22;;;;;;;9.30;2.78;;;2.40;99.90;;;;;;5078282;28;20456;-60
2022/01/06 03:17:50;;;;;;;15.20;2.42;;;2.30;99.90;;;;;;5059571;28;20043;-61
2022/01/06 03:20:18;;;;;;;12.57;2.05;;;2.40;99.90;;;;;;5077865;28;20091;-60
2022/01/06 03:22:44;;;;;;;17.95;2.30;;;2.20;99.90;;;;;;5059801;28;20048;-59
2022/01/06 03:25:11;;;;;;;15.77;2.25;;;1.90;99.90;;;;;;5078011;28;20040;-59
2022/01/06 03:27:38;;;;;;;12.25;2.38;;;1.90;99.90;;;;;;5077496;28;20040;-59
2022/01/06 03:30:05;;;;;;;11.27;2.30;;;1.90;99.90;;;;;;5077517;28;20405;-59
2022/01/06 03:32:31;;;;;;;12.93;2.33;;;;;;;;;;5059715;28;20044;-60
2022/01/06 03:34:57;;;;;;;9.43;1.92;;;;;;;;;;5059768;28;20521;-59
2022/01/06 03:37:23;;;;;;;9.02;2.38;;;1.70;99.90;;;;;;5077919;28;20036;-59
2022/01/06 03:39:49;;;;;;;11.60;2.10;;;;;;;;;;5059728;28;20486;-60
2022/01/06 03:42:15;;;;;;;12.98;2.08;;;1.70;99.90;;;;;;5059645;28;20040;-60
2022/01/06 03:44:41;;;;;;;10.60;2.97;;;;;;;;;;5077592;28;20047;-60
2022/01/06 03:47:07;;;;;;;8.27;2.55;;;;;;;;;;5077557;28;20158;-59
2022/01/06 03:49:32;;;;;;;8.07;3.00;;;1.50;99.90;;;;;;5077615;28;20052;-60
2022/01/06 03:51:58;;;;;;;15.10;3.13;;;1.50;99.90;;;;;;5077087;28;20056;-59
2022/01/06 03:54:24;;;;;;;11.77;2.42;;;;;;;;;;5060134;28;20041;-59
2022/01/06 03:56:50;;;;;;;12.85;2.33;;;;;;;;;;5059766;28;20036;-60
2022/01/06 03:59:17;;;;;;;16.38;3.17;;;1.60;99.90;;;;;;5077522;28;20036;-60
2022/01/06 04:01:44;;;;;;;12.63;3.38;;;1.70;99.90;;;;;;5076950;28;20036;-59
2022/01/06 04:04:10;;;;;;;12.82;2.42;;;1.70;99.90;;;;;;5076958;28;20045;-59
2022/01/06 04:06:36;;;;;;;12.82;2.53;;;1.80;99.90;;;;;;5076944;28;20147;-59
2022/01/06 04:09:03;;;;;;;17.92;4.68;;;1.70;99.90;;;;;;5077720;28;20064;-62
2022/01/06 04:11:29;;;;;;;7.90;2.10;;;;;;;;;;5059374;28;20033;-59
2022/01/06 04:13:55;;;;;;;12.90;2.17;;;;;;;;;;5059693;28;20049;-59
2022/01/06 04:16:21;;;;;;;14.68;3.17;;;1.40;99.90;;;;;;5059756;28;20041;-60
2022/01/06 04:18:47;;;;;;;12.48;2.20;;;;;;;;;;5058862;28;20040;-59
2022/01/06 04:21:13;;;;;;;14.40;2.60;;;1.50;99.90;;;;;;5059188;28;20040;-59
2022/01/06 04:23:39;;;;;;;14.45;3.30;;;1.60;99.90;;;;;;5076628;28;20401;-58
2022/01/06 04:26:05;;;;;;;14.57;2.33;;;1.60;99.90;;;;;;5076657;28;20100;-59
2022/01/06 04:28:30;;;;;;;15.73;2.60;;;;;;;;;;5076948;28;20494;-59
2022/01/06 04:30:56;;;;;;;14.60;2.50;;;1.80;99.90;;;;;;5059184;28;20044;-59
2022/01/06 04:33:22;;;;;;;12.65;2.22;;;1.80;99.90;;;;;;5076766;28;20037;-59
2022/01/06 04:35:48;;;;;;;11.93;2.53;;;;;;;;;;5076922;28;20041;-60
2022/01/06 04:38:14;;;;;;;12.93;2.47;;;;;;;;;;5058907;28;20479;-58
2022/01/06 04:40:40;;;;;;;12.05;2.67;;;;;;;;;;5058439;28;20032;-59
2022/01/06 04:43:07;;;;;;;16.58;3.13;;;1.70;99.90;;;;;;5058507;28;20055;-59
2022/01/06 04:45:33;;;;;;;12.35;2.55;;;;;;;;;;5059074;28;20055;-64
2022/01/06 04:47:59;;;;;;;17.25;2.88;;;;;;;;;;5043072;28;20048;-65
2022/01/06 04:50:25;;;;;;;13.32;2.67;;;1.70;99.90;;;;;;5059756;28;20123;-64
2022/01/06 04:53:46;;;;;;;15.23;2.78;;;1.70;99.90;;;;;;5076703;28;20520;-63
2022/01/06 04:56:12;;;;;;;13.60;2.08;;;;;;;;;;5058992;28;20036;-64
2022/01/06 04:58:39;;;;;;;12.95;2.47;;;;;;;;;;5058410;28;20041;-64
2022/01/06 05:01:05;;;;;;;8.40;2.17;;;;;;;;;;5057995;28;20466;-64
2022/01/06 05:03:30;;;;;;;10.18;2.30;;;1.60;99.90;;;;;;5076646;28;20072;-64
2022/01/06 05:05:56;;;;;;;13.30;2.50;;;1.60;99.90;;;;;;5073965;28;20398;-64
2022/01/06 05:08:21;;;;;;;10.75;2.60;;;1.50;99.90;;;;;;5074281;28;20421;-64
2022/01/06 05:10:47;;;;;;;10.20;2.08;;;1.50;99.90;;;;;;5056645;28;20508;-64
2022/01/06 05:13:13;;;;;;;13.15;3.00;;;1.40;99.90;;;;;;5039925;28;20040;-64
2022/01/06 05:15:38;;;;;;;13.80;2.22;;;1.60;99.90;;;;;;5056552;28;20028;-64
2022/01/06 05:18:04;;;;;;;12.32;2.80;;;1.90;99.90;;;;;;5056378;28;20420;-64
2022/01/06 05:20:30;;;;;;;10.70;3.10;;;1.50;99.90;;;;;;5074230;28;20410;-64
2022/01/06 05:22:57;;;;;;;11.23;2.25;;;1.60;99.90;;;;;;5056270;28;20052;-64
2022/01/06 05:25:28;;;;;;;13.70;2.40;;;1.60;99.90;;;;;;5074092;28;20044;-64
2022/01/06 05:27:55;;;;;;;14.25;2.75;;;1.60;99.90;;;;;;5055839;28;20093;-64
2022/01/06 05:30:21;;;;;;;12.02;2.03;;;1.50;99.90;;;;;;5056323;28;20166;-64
2022/01/06 05:32:47;;;;;;;14.30;2.97;;;1.50;99.90;;;;;;5073257;28;20501;-64
2022/01/06 05:35:13;;;;;;;10.98;2.80;;;1.50;99.90;;;;;;5056243;28;20037;-64
2022/01/06 05:37:38;;;;;;;18.67;5.13;;;1.60;99.90;;;;;;5055765;28;20466;-64
2022/01/06 05:40:05;;;;;;;13.32;2.40;;;1.50;99.90;;;;;;5056164;28;20036;-64
2022/01/06 05:42:31;;;;;;;18.73;2.95;;;1.50;99.90;;;;;;5039320;28;20076;-65
2022/01/06 05:44:57;;;;;;;13.82;2.58;;;;;;;;;;5055845;28;20512;-64
2022/01/06 05:47:23;;;;;;;14.40;2.75;;;1.60;99.90;;;;;;5056212;28;20044;-64
2022/01/06 05:49:48;;;;;;;12.00;2.72;;;1.60;99.90;;;;;;5055599;28;20045;-64
2022/01/06 05:52:14;;;;;;;11.80;2.20;;;;;;;;;;5055340;28;20106;-63
2022/01/06 05:54:40;;;;;;;17.52;3.42;;;1.50;99.90;;;;;;5073701;28;20528;-64
2022/01/06 05:57:08;;;;;;;19.25;2.88;;;1.50;99.90;;;;;;5055599;28;20115;-64
2022/01/06 05:59:33;;;;;;;19.10;2.65;;;1.60;99.90;;;;;;5055659;28;20040;-64
2022/01/06 06:02:00;;;;;;;16.67;2.70;;;1.50;99.90;;;;;;5073166;28;20039;-64
2022/01/06 06:04:26;;;;;;;15.35;2.50;;;1.40;99.90;;;;;;5073469;28;20040;-64
2022/01/06 06:06:51;;;;;;;14.07;2.53;;;1.40;99.90;;;;;;5055531;28;20048;-64
2022/01/06 06:09:17;;;;;;;18.83;3.13;;;1.40;99.90;;;;;;5073511;28;20040;-64
2022/01/06 06:11:42;;;;;;;11.68;2.30;;;1.40;99.90;;;;;;5073297;28;20033;-64
2022/01/06 06:14:08;;;;;;;14.35;2.85;;;1.30;99.90;;;;;;5055264;28;20048;-64
2022/01/06 06:16:34;;;;;;;11.60;2.25;;;1.30;99.90;;;;;;5073399;28;20090;-64
2022/01/06 06:18:59;;;;;;;14.60;2.38;;;1.40;99.90;;;;;;5073101;28;20040;-64
2022/01/06 06:21:25;;;;;;;11.48;2.42;;;1.40;99.90;;;;;;5073167;28;20036;-65
2022/01/06 06:23:50;;;;;;;21.75;4.70;;;1.30;99.90;;;;;;5055145;28;20045;-64
2022/01/06 06:26:16;;;;;;;17.15;3.00;;;1.40;99.90;;;;;;5072427;28;20047;-64
2022/01/06 06:28:42;;;;;;;12.65;2.35;;;;;;;;;;5073008;28;20040;-65
2022/01/06 06:31:08;;;;;;;9.18;2.30;;;1.60;99.90;;;;;;5049493;28;20481;-64
2022/01/06 06:33:34;;;;;;;17.42;2.65;;;1.30;99.90;;;;;;5038949;28;20483;-63
2022/01/06 06:35:59;;;;;;;12.82;2.30;;;1.40;99.90;;;;;;5032800;28;20052;-64
2022/01/06 06:38:25;;;;;;;13.98;3.20;;;;;;;;;;5051680;28;20060;-65
2022/01/06 06:40:51;;;;;;;17.02;3.05;;;;;;;;;;5051804;28;20072;-63
2022/01/06 06:43:17;;;;;;;34.03;4.97;;;1.30;99.90;;;;;;5068423;28;20064;-64
2022/01/06 06:45:43;;;;;;;13.85;2.80;;;1.30;99.90;;;;;;5058283;28;20040;-64
2022/01/06 06:48:09;;;;;;;16.83;3.08;;;1.20;99.90;;;;;;5057866;28;20056;-64
2022/01/06 06:50:35;;;;;;;12.80;2.47;;;1.40;99.90;;;;;;5075855;28;20071;-63
2022/01/06 06:53:02;;;;;;;11.43;2.67;;;1.40;99.90;;;;;;5057878;28;20095;-64
2022/01/06 06:55:28;;;;;;;15.23;3.08;;;1.40;99.90;;;;;;5075619;28;20482;-63
2022/01/06 06:57:54;;;;;;;14.63;2.58;;;1.40;99.90;;;;;;5076505;28;20041;-64
2022/01/06 07:00:20;;;;;;;10.32;2.08;;;1.30;99.90;;;;;;5058041;28;20041;-65
2022/01/06 07:02:46;;;;;;;14.43;2.55;;;1.30;99.90;;;;;;5076479;28;20036;-65
2022/01/06 07:05:12;;;;;;;14.02;2.85;;;1.30;99.90;;;;;;5058636;28;20040;-64
2022/01/06 07:07:38;;;;;;;15.85;2.58;;;;;;;;;;5058211;28;20072;-62
2022/01/06 07:10:04;;;;;;;14.02;2.45;;;1.30;99.90;;;;;;5076522;28;20600;-65
2022/01/06 07:12:30;;;;;;;27.02;2.80;;;1.40;99.90;;;;;;5076423;28;20044;-65
2022/01/06 07:14:57;;;;;;;13.77;2.80;;;1.30;99.90;;;;;;5055303;28;20372;-64
2022/01/06 07:17:23;;;;;;;10.05;2.60;;;;;;;;;;5056128;28;20051;-63
2022/01/06 07:19:49;;;;;;;11.15;2.30;;;1.30;99.90;;;;;;5074700;28;20040;-65
2022/01/06 07:22:14;;;;;;;12.45;3.22;;;1.30;99.90;;;;;;5056777;28;20076;-64
2022/01/06 07:24:40;;;;;;;8.40;2.33;;;1.30;99.90;;;;;;5056845;28;20036;-64
2022/01/06 07:27:06;;;;;;;11.43;2.55;;;;;;;;;;5068234;28;20040;-64
2022/01/06 07:29:32;;;;;;;15.85;3.10;;;;;;;;;;5050175;28;20071;-64
2022/01/06 07:31:58;;;;;;;17.60;3.13;;;;;;;;;;5052166;28;20033;-64
2022/01/06 07:34:24;;;;;;;10.68;2.63;;;;;;;;;;5051618;28;20056;-62
2022/01/06 07:36:50;;;;;;;12.02;2.42;;;;;;;;;;5048068;28;20132;-64
2022/01/06 07:39:16;;;;;;;15.77;2.85;;;;;;;;;;5062459;28;20045;-65
2022/01/06 07:41:42;;;;;;;17.88;3.40;;;1.20;99.90;;;;;;5065094;28;20674;-65
2022/01/06 07:44:08;;;;;;;20.17;3.85;;;;;;;;;;5072777;28;20075;-65
2022/01/06 07:46:35;;;;;;;14.98;2.58;;;1.10;99.90;;;;;;5054495;28;20040;-64
2022/01/06 07:49:01;;;;;;;11.98;2.80;;;;;;;;;;5051947;28;20044;-62
2022/01/06 07:51:28;;;;;;;14.70;3.50;;;;;;;;;;5070340;28;20056;-64
2022/01/06 07:53:55;;;;;;;19.05;3.72;;;1.20;99.90;;;;;;5053860;28;20052;-63
2022/01/06 07:56:22;;;;;;;14.93;2.63;;;;;;;;;;5069827;28;20067;-64
2022/01/06 07:58:48;;;;;;;10.68;2.83;;;;;;;;;;5068545;28;20044;-63
2022/01/06 08:01:14;;;;;;;18.35;3.13;;;;;;;;;;5066709;28;20037;-64
2022/01/06 08:03:41;;;;;;;23.17;3.05;;;;;;;;;;5051393;28;20063;-65
2022/01/06 08:06:07;;;;;;;17.65;3.10;;;;;;;;;;5052085;28;20052;-64
2022/01/06 08:08:33;;;;;;;17.95;3.30;;;;;;;;;;5067254;28;20080;-64
2022/01/06 08:10:59;;;;;;;13.02;3.33;;;;;;;;;;5070750;28;20063;-65
2022/01/06 08:13:25;;;;;;;15.27;3.97;;;;;;;;;;5045661;28;20044;-63
2022/01/06 08:15:51;;;;;;;17.30;3.55;;;1.40;99.90;;;;;;5053049;28;20044;-64
2022/01/06 08:18:16;;;;;;;19.77;3.42;;;1.60;99.90;;;;;;5070686;28;20413;-65
2022/01/06 08:20:42;;;;;;;17.23;3.90;;;;;;;;;;5051827;28;20044;-65
2022/01/06 08:23:08;;;;;;;24.80;3.92;;;;;;;;;;5052512;28;20036;-65
2022/01/06 08:25:35;;;;;;;16.80;3.63;;;;;;;;;;5069855;28;20045;-65
2022/01/06 08:28:01;;;;;;;17.33;3.47;;;;;;;;;;5069713;28;20048;-65
2022/01/06 08:30:27;;;;;;;13.60;3.00;;;1.80;99.90;;;;;;5074739;28;20040;-65
2022/01/06 08:32:54;;;;;;;17.70;3.60;;;1.90;99.90;;;;;;5055700;28;20090;-66
2022/01/06 08:35:23;;;;;;;18.80;3.28;;;2.10;99.90;;;;;;5056686;28;20044;-65
2022/01/06 08:37:49;;;;;;;24.88;3.60;;;2.20;99.90;;;;;;5084070;28;20449;-66
2022/01/06 08:40:15;;;;;;;14.60;4.78;;;2.10;99.90;;;;;;5089075;28;20040;-65
2022/01/06 08:42:41;;;;;;;13.77;3.30;;;2.40;99.90;;;;;;5088045;28;20061;-65
2022/01/06 08:45:07;;;;;;;20.70;3.80;;;2.50;99.90;;;;;;5075423;28;20036;-65
2022/01/06 08:47:32;;;;;;;20.73;3.70;;;2.60;99.90;;;;;;5074476;28;20178;-64
2022/01/06 08:49:58;;;;;;;12.35;3.58;;;2.70;99.90;;;;;;5092934;28;20568;-64
2022/01/06 08:52:25;;;;;;;19.00;3.20;;;;;;;;;;5056259;28;20127;-64
2022/01/06 08:54:50;;;;;;;19.35;3.42;;;3.30;99.90;;;;;;5048995;28;20048;-65
2022/01/06 08:57:16;;;;;;;18.85;4.13;;;3.20;99.90;;;;;;5074106;28;20497;-65
2022/01/06 08:59:42;;;;;;;19.42;4.55;;;3.30;99.90;;;;;;5073388;28;20832;-65
2022/01/06 09:02:08;;;;;;;17.60;3.40;;;3.40;99.90;;;;;;5079462;28;20032;-65
2022/01/06 09:04:34;;;;;;;12.52;2.85;;;3.50;99.90;;;;;;5084196;28;20379;-67
2022/01/06 09:07:02;;;;;;;16.35;3.08;;;3.70;99.90;;;;;;5065083;28;20052;-66
2022/01/06 09:09:28;;;;;;;14.63;3.78;;;;;;;;;;5051958;28;20072;-66
2022/01/06 09:11:57;;;;;;;18.08;3.65;;;;;;;;;;5061651;28;20139;-65
2022/01/06 09:14:23;;;;;;;19.75;3.47;;;;;;;;;;5060523;28;20072;-65
2022/01/06 09:16:50;;;;;;;16.70;3.75;;;4.40;99.90;;;;;;5055594;28;20047;-65
2022/01/06 09:19:16;;;;;;;13.43;3.35;;;4.40;99.90;;;;;;5082478;28;20036;-65
2022/01/06 09:21:41;;;;;;;20.75;3.70;;;4.40;99.90;;;;;;5087190;28;20066;-65
2022/01/06 09:24:07;;;;;;;14.15;3.53;;;;;;;;;;5084682;28;20390;-65
2022/01/06 09:26:35;;;;;;;17.33;4.07;;;;;;;;;;5081098;28;20036;-65
2022/01/06 09:29:02;;;;;;;13.82;3.47;;;;;;;;;;5071391;28;20123;-66
2022/01/06 09:31:28;;;;;;;17.75;3.70;;;5.40;99.90;;;;;;5071041;28;20036;-66
2022/01/06 09:33:53;;;;;;;15.18;3.17;;;5.60;99.90;;;;;;5070850;28;20490;-66
2022/01/06 09:36:19;;;;;;;11.75;2.90;;;5.70;99.90;;;;;;5080978;28;20051;-65
2022/01/06 09:38:46;;;;;;;17.35;4.30;;;5.80;99.90;;;;;;5089762;28;20045;-65
2022/01/06 09:41:12;;;;;;;13.93;4.60;;;;;;;;;;5072004;28;20398;-66
2022/01/06 09:43:38;;;;;;;16.73;3.42;;;5.90;99.90;;;;;;5071074;28;20071;-65
2022/01/06 09:46:08;;;;;;;11.82;2.83;;;6.00;99.90;;;;;;5072086;28;20093;-65
2022/01/06 09:48:36;;;;;;;16.65;4.28;;;6.00;99.90;;;;;;5080106;28;20060;-65
2022/01/06 09:51:02;;;;;;;14.45;3.03;;;6.30;99.90;;;;;;5071339;28;20052;-65
2022/01/06 09:53:27;;;;;;;19.00;3.50;;;6.40;99.90;;;;;;5071826;28;20483;-65
2022/01/06 09:55:54;;;;;;;13.93;3.30;;;6.40;99.90;;;;;;5053171;28;20497;-65
2022/01/06 09:58:25;;;;;;;13.82;3.40;;;;;;;;;;5070286;28;20044;-65
2022/01/06 10:00:51;;;;;;;15.85;3.22;;;;;;;;;;5070110;28;20040;-64
2022/01/06 10:03:17;;;;;;;14.02;3.55;;;;;;;;;;5086749;28;20093;-65
2022/01/06 10:05:44;;;;;;;12.30;3.28;;;;;;;;;;5079095;28;20470;-65
2022/01/06 10:08:11;;;;;;;13.75;3.33;;;7.80;99.90;;;;;;5062002;28;20067;-64
2022/01/06 10:10:37;;;;;;;14.98;2.75;;;7.60;99.90;;;;;;5061264;28;20089;-66
2022/01/06 10:13:07;;;;;;;11.82;3.80;;;7.40;99.90;;;;;;5071500;28;20056;-67
2022/01/06 10:15:38;;;;;;;18.08;3.88;;;7.30;99.90;;;;;;5052981;28;20432;-67
2022/01/06 10:18:15;;;;;;;11.55;2.58;;;7.30;99.90;;;;;;5076618;28;20067;-65
2022/01/06 10:20:42;;;;;;;13.35;3.20;;;7.90;99.90;;;;;;5071128;28;20498;-65
2022/01/06 10:23:13;;;;;;;12.98;2.78;;;;;;;;;;5070280;28;20739;-65
2022/01/06 10:25:44;;;;;;;11.45;3.00;;;7.60;99.90;;;;;;5069436;28;20632;-65
2022/01/06 10:28:17;;;;;;;7.80;3.00;;;;;;;;;;5050649;28;20051;-65
2022/01/06 10:30:48;;;;;;;19.92;2.95;;;7.40;99.90;;;;;;5050491;28;20105;-65
2022/01/06 10:33:33;;;;;;;15.65;2.83;;;7.50;99.90;;;;;;5049828;28;20105;-65
2022/01/06 10:36:06;;;;;;;12.15;2.58;;;7.50;99.90;;;;;;5052314;28;20101;-66
2022/01/06 10:38:31;;;;;;;12.05;2.90;;;7.70;99.90;;;;;;5053202;28;20170;-66
2022/01/06 10:41:08;;;;;;;20.30;4.25;;;;;;;;;;5071529;28;20050;-66
2022/01/06 10:43:34;;;;;;;12.57;3.95;;;7.70;99.90;;;;;;5052020;28;20078;-68
2022/01/06 10:46:01;;;;;;;17.77;3.53;;;;;;;;;;5070117;28;20404;-66
2022/01/06 10:48:27;;;;;;;10.27;2.72;;;7.60;99.90;;;;;;5070073;28;20506;-67
2022/01/06 10:50:57;;;;;;;20.67;3.25;;;7.70;99.90;;;;;;5050707;28;20052;-65
2022/01/06 10:53:23;;;;;;;22.45;4.25;;;;;;;;;;5053521;28;20409;-62
2022/01/06 10:55:49;;;;;;;20.02;3.08;;;;;;;;;;5054867;28;20044;-66
2022/01/06 10:58:25;;;;;;;10.40;2.28;;;7.80;99.90;;;;;;5069112;28;20386;-65
2022/01/06 11:00:57;;;;;;;15.35;2.97;;;7.70;99.90;;;;;;5070132;28;20561;-66
2022/01/06 11:03:28;;;;;;;11.90;2.80;;;7.50;99.90;;;;;;5033797;28;20044;-65
2022/01/06 11:05:58;;;;;;;12.23;2.95;;;7.70;99.90;;;;;;5068259;28;20036;-66
2022/01/06 11:08:27;;;;;;;11.50;3.30;;;7.50;99.90;;;;;;5070573;28;20094;-65
2022/01/06 11:13:38;;;;;;;10.32;2.85;;;7.80;99.90;;;;;;5067588;28;20048;-64
2022/01/06 11:16:05;;;;;;;11.73;4.00;;;7.70;99.90;;;;;;5059901;28;20050;-65
2022/01/06 11:18:32;;;;;;;12.30;3.33;;;7.90;99.90;;;;;;5074743;28;20056;-65
2022/01/06 11:21:08;;;;;;;12.52;2.97;;;;;;;;;;5076371;28;20047;-65
2022/01/06 11:23:34;;;;;;;15.35;3.13;;;;;;;;;;5070387;28;20095;-65
2022/01/06 11:26:16;;;;;;;14.20;2.60;;;;;;;;;;5071986;28;20570;-65
2022/01/06 11:28:43;;;;;;;15.20;2.95;;;7.90;99.90;;;;;;5071452;28;20487;-62
2022/01/06 11:31:18;;;;;;;11.07;3.40;;;8.00;99.90;;;;;;5090217;28;20036;-66
2022/01/06 11:33:46;;;;;;;13.75;3.40;;;8.00;99.90;;;;;;5069494;28;20107;-62
2022/01/06 11:36:32;;;;;;;14.95;2.97;;;7.80;99.90;;;;;;5043013;28;20045;-66
2022/01/06 11:38:59;;;;;;;13.82;3.25;;;7.90;99.90;;;;;;5069433;28;20398;-66
2022/01/06 11:41:31;;;;;;;15.02;3.60;;;;;;;;;;5052375;28;20045;-65
2022/01/06 11:43:58;;;;;;;11.73;3.25;;;7.90;99.90;;;;;;5060075;28;20079;-69
2022/01/06 11:46:24;;;;;;;14.02;3.03;;;;;;;;;;5071222;28;20045;-67
2022/01/06 11:48:58;;;;;;;15.90;3.00;;;7.90;99.90;;;;;;5036692;28;20059;-66
2022/01/06 11:51:29;;;;;;;14.43;3.33;;;8.00;99.90;;;;;;5050224;28;20044;-65
2022/01/06 11:53:56;;;;;;;19.05;4.03;;;8.20;99.90;;;;;;5068847;28;20532;-65
2022/01/06 11:56:23;;;;;;;20.30;3.55;;;8.00;99.90;;;;;;5049218;28;20090;-67
2022/01/06 11:59:00;;;;;;;17.25;3.63;;;;;;;;;;5049151;28;20115;-68
2022/01/06 12:01:26;;;;;;;10.77;2.92;;;;;;;;;;5044654;28;20119;-65
2022/01/06 12:03:52;;;;;;;10.02;2.85;;;8.40;99.90;;;;;;5049350;28;20095;-65
2022/01/06 12:06:30;;;;;;;10.30;3.70;;;8.40;99.90;;;;;;5029550;28;20049;-65
2022/01/06 12:08:57;;;;;;;11.13;3.38;;;8.70;99.90;;;;;;5028545;28;20044;-66
2022/01/06 12:11:27;;;;;;;17.02;3.70;;;8.50;99.90;;;;;;5051086;28;20579;-65
2022/01/06 12:13:55;;;;;;;14.80;3.15;;;8.80;99.90;;;;;;5046831;28;20059;-66
2022/01/06 12:16:35;;;;;;;15.60;3.55;;;8.80;99.90;;;;;;5065792;28;20036;-66
2022/01/06 12:19:19;;;;;;;17.17;2.92;;;9.20;99.90;;;;;;5062322;28;20033;-64
2022/01/06 12:21:46;;;;;;;11.18;3.50;;;8.90;99.90;;;;;;5065861;28;20029;-63
2022/01/06 12:24:13;;;;;;;27.27;3.15;;;9.20;99.90;;;;;;5050071;28;20048;-63
2022/01/06 12:26:39;;;;;;;16.58;3.20;;;8.60;99.90;;;;;;5042536;28;20425;-65
2022/01/06 12:29:12;;;;;;;6.82;2.80;;;8.70;99.90;;;;;;5030125;28;20052;-64
2022/01/06 12:31:38;;;;;;;14.95;3.10;;;8.60;99.90;;;;;;5047762;28;20098;-67
2022/01/06 12:34:04;;;;;;;11.25;3.13;;;8.30;99.90;;;;;;5066474;28;20438;-67
2022/01/06 12:36:32;;;;;;;14.25;3.15;;;8.80;99.90;;;;;;5052193;28;20044;-67
2022/01/06 12:39:06;;;;;;;10.68;2.67;;;9.20;99.90;;;;;;5054728;28;20375;-67
2022/01/06 12:41:34;;;;;;;9.13;2.60;;;;;;;;;;5066841;28;20082;-66
2022/01/06 12:43:59;;;;;;;10.75;2.90;;;11.60;99.90;;;;;;5072983;28;20040;-68
2022/01/06 12:46:34;;;;;;;11.50;2.92;;;12.60;99.90;;;;;;5072375;28;20050;-66
2022/01/06 12:49:00;;;;;;;9.70;2.45;;;12.80;99.90;;;;;;5055601;28;20551;-68
2022/01/06 12:51:28;;;;;;;8.38;2.30;;;12.90;99.90;;;;;;5063009;28;20056;-66
2022/01/06 12:54:08;;;;;;;8.13;2.38;;;12.50;99.90;;;;;;5072594;28;20040;-68
2022/01/06 12:56:38;;;;;;;11.05;2.97;;;12.50;99.90;;;;;;5072224;28;20048;-67
2022/01/06 12:59:12;;;;;;;14.63;3.88;;;12.30;99.90;;;;;;5072341;28;20067;-65
2022/01/06 13:01:39;;;;;;;15.37;3.10;;;12.50;99.90;;;;;;5069332;28;20049;-68
2022/01/06 13:04:06;;;;;;;10.35;2.85;;;12.40;99.90;;;;;;5064902;28;20326;-68
2022/01/06 13:06:35;;;;;;;15.25;2.95;;;12.30;99.90;;;;;;5071905;28;20584;-66
2022/01/06 13:09:19;;;;;;;13.20;3.20;;;12.50;99.90;;;;;;5066527;28;20084;-66
2022/01/06 13:11:52;;;;;;;16.20;2.65;;;11.80;99.90;;;;;;5070226;28;20090;-67
2022/01/06 13:14:41;;;;;;;9.90;2.20;;;11.40;99.90;;;;;;5069928;28;20048;-67
2022/01/06 13:17:23;;;;;;;13.73;2.70;;;10.70;99.90;;;;;;5066470;28;20048;-67
2022/01/06 13:20:10;;;;;;;9.90;2.70;;;10.50;99.90;;;;;;5070774;28;20067;-66
2022/01/06 13:25:21;;;;;;;7.85;2.30;;;9.30;99.90;;;;;;5063809;28;20036;-67
2022/01/06 13:28:03;;;;;;;14.15;2.90;;;9.10;99.90;;;;;;5073738;28;20506;-67
2022/01/06 13:30:47;;;;;;;14.48;2.60;;;8.80;99.90;;;;;;5070817;28;20044;-67